Time;durP1;ratioP1;P1;durP2;ratioP2;P2;SDS_P1;SDS_P2;PMS_P1;PMS_P2;Temp;Humidity;BMP_temperature;BMP_pressure;BME280_temperature;BME280_humidity;BME280_pressure;Samples;Min_cycle;Max_cycle;Signal;HPM_P1;HPM_P2
2021/10/15 00:04:51;;;;;;;9.70;3.85;;;;;;;9.19;65.91;100237.91;10391359;28;20083;-63
2021/10/15 00:09:52;;;;;;;8.45;3.70;;;;;;;9.21;65.79;100241.28;10391124;28;20444;-63
2021/10/15 00:14:54;;;;;;;6.93;3.60;;;;;;;9.13;65.78;100246.03;10389709;28;20065;-63
2021/10/15 00:19:56;;;;;;;9.55;3.97;;;;;;;9.01;66.05;100238.81;10390790;28;20052;-63
2021/10/15 00:24:57;;;;;;;9.77;3.80;;;;;;;8.91;66.11;100229.75;10390695;28;20048;-63
2021/10/15 00:29:59;;;;;;;7.47;3.88;;;;;;;8.94;66.11;100232.19;10390632;28;20075;-63
2021/10/15 00:35:01;;;;;;;9.18;3.85;;;;;;;8.92;66.01;100228.81;10390790;28;20055;-63
2021/10/15 00:40:03;;;;;;;7.63;3.88;;;;;;;8.83;66.29;100226.66;10390939;28;20091;-63
2021/10/15 00:45:05;;;;;;;9.10;3.95;;;;;;;8.77;66.44;100208.69;10389583;28;20194;-63
2021/10/15 00:50:07;;;;;;;10.57;3.92;;;;;;;8.68;66.43;100212.56;10389221;28;20054;-63
2021/10/15 00:55:09;;;;;;;8.30;3.97;;;;;;;8.59;66.54;100205.19;10390065;28;20059;-63
2021/10/15 01:00:11;;;;;;;10.43;3.75;;;;;;;8.53;66.91;100202.00;10389004;28;20548;-63
2021/10/15 01:05:13;;;;;;;8.88;3.90;;;;;;;8.48;66.98;100191.81;10388152;28;20049;-63
2021/10/15 01:10:16;;;;;;;8.75;4.05;;;;;;;8.41;66.96;100187.81;10388148;28;20057;-63
2021/10/15 01:15:17;;;;;;;11.45;4.40;;;;;;;8.38;67.04;100179.28;10387147;28;20405;-63
2021/10/15 01:20:19;;;;;;;8.63;3.60;;;;;;;8.37;66.98;100183.66;10388070;28;20059;-63
2021/10/15 01:25:21;;;;;;;13.75;4.32;;;;;;;8.30;66.90;100176.19;10388414;28;20053;-63
2021/10/15 01:30:23;;;;;;;6.00;3.60;;;;;;;8.31;66.99;100170.06;10388038;28;20057;-63
2021/10/15 01:35:24;;;;;;;7.50;4.10;;;;;;;8.29;66.62;100170.13;10387374;28;20057;-63
2021/10/15 01:40:26;;;;;;;9.55;4.22;;;;;;;8.22;66.89;100160.06;10387674;28;20049;-63
2021/10/15 01:45:30;;;;;;;8.90;4.10;;;;;;;8.15;67.12;100156.06;10387523;28;20509;-63
2021/10/15 01:50:31;;;;;;;9.02;4.05;;;;;;;8.09;67.39;100146.72;10387589;28;20493;-63
2021/10/15 01:55:33;;;;;;;8.88;4.88;;;;;;;8.17;67.15;100144.66;10387498;28;20148;-63
2021/10/15 02:00:36;;;;;;;10.15;4.38;;;;;;;8.10;67.36;100135.41;10386775;28;20045;-63
2021/10/15 02:05:38;;;;;;;10.57;4.20;;;;;;;8.02;67.55;100125.31;10394385;28;20428;-63
2021/10/15 02:10:39;;;;;;;9.07;4.55;;;;;;;8.02;67.45;100127.09;10394464;28;20577;-63
2021/10/15 02:15:41;;;;;;;10.57;4.65;;;;;;;8.02;67.38;100134.91;10393517;28;20054;-63
2021/10/15 02:20:44;;;;;;;9.18;4.55;;;;;;;8.00;67.66;100127.16;10394279;28;20053;-63
2021/10/15 02:25:46;;;;;;;8.93;4.60;;;;;;;7.98;67.44;100121.19;10393398;28;20045;-63
2021/10/15 02:30:48;;;;;;;10.55;4.50;;;;;;;7.98;67.55;100115.13;10393942;28;20045;-63
2021/10/15 02:35:50;;;;;;;7.35;4.32;;;;;;;8.06;67.29;100112.19;10393390;28;20037;-63
2021/10/15 02:40:51;;;;;;;12.15;4.90;;;;;;;8.00;67.03;100116.75;10391625;28;20132;-63
2021/10/15 02:45:53;;;;;;;11.48;5.05;;;;;;;7.83;66.69;100108.03;10392541;28;20053;-63
2021/10/15 02:50:55;;;;;;;10.50;5.38;;;;;;;7.62;67.19;100114.19;10392022;28;20047;-63
2021/10/15 02:55:56;;;;;;;11.73;5.20;;;;;;;7.55;67.41;100097.19;10375094;28;20053;-63
2021/10/15 03:00:58;;;;;;;11.13;4.75;;;;;;;7.64;67.36;100095.00;10392631;28;20136;-63
2021/10/15 03:06:00;;;;;;;11.55;5.00;;;;;;;7.68;67.09;100093.94;10386781;28;20056;-63
2021/10/15 03:11:03;;;;;;;9.25;4.78;;;;;;;7.62;66.93;100082.97;10385632;28;20502;-63
2021/10/15 03:16:05;;;;;;;11.23;4.60;;;;;;;7.56;67.02;100086.69;10384201;28;20060;-63
2021/10/15 03:21:07;;;;;;;8.43;4.50;;;;;;;7.51;66.74;100080.00;10385236;28;20142;-63
2021/10/15 03:26:08;;;;;;;6.25;4.03;;;;;;;7.48;66.85;100082.72;10384349;28;20049;-63
2021/10/15 03:31:10;;;;;;;10.02;4.78;;;;;;;7.48;66.65;100091.41;10384576;28;20603;-63
2021/10/15 03:36:12;;;;;;;9.25;4.80;;;;;;;7.53;67.00;100084.22;10383355;28;20057;-64
2021/10/15 03:41:14;;;;;;;9.70;4.40;;;;;;;7.56;67.07;100073.69;10384681;28;20389;-63
2021/10/15 03:46:15;;;;;;;9.63;5.25;;;;;;;7.58;67.37;100058.84;10384604;28;20049;-63
2021/10/15 03:51:17;;;;;;;8.48;4.90;;;;;;;7.62;67.59;100059.53;10384197;28;20061;-63
2021/10/15 03:56:19;;;;;;;12.75;5.20;;;;;;;7.68;67.48;100052.28;10384644;28;20056;-63
2021/10/15 04:01:21;;;;;;;10.13;5.07;;;;;;;7.64;67.67;100050.75;10383939;28;20608;-63
2021/10/15 04:06:23;;;;;;;12.90;5.80;;;;;;;7.61;67.68;100056.06;10384020;28;20562;-63
2021/10/15 04:11:24;;;;;;;9.95;5.38;;;;;;;7.58;67.79;100056.22;10384628;28;20060;-63
2021/10/15 04:16:26;;;;;;;12.60;5.80;;;;;;;7.56;67.89;100052.84;10382715;28;20095;-63
2021/10/15 04:21:28;;;;;;;13.70;5.47;;;;;;;7.53;68.13;100045.16;10384216;28;20052;-63
2021/10/15 04:26:30;;;;;;;12.40;5.88;;;;;;;7.55;68.10;100042.53;10384640;28;20060;-63
2021/10/15 04:31:31;;;;;;;15.20;6.53;;;;;;;7.57;67.86;100041.50;10383982;28;20046;-63
2021/10/15 04:36:35;;;;;;;13.48;5.40;;;;;;;7.58;67.84;100045.81;10384522;28;20136;-63
2021/10/15 04:41:37;;;;;;;10.73;5.78;;;;;;;7.62;67.72;100041.31;10383386;28;20155;-63
2021/10/15 04:46:39;;;;;;;12.98;6.18;;;;;;;7.61;67.72;100039.63;10386994;28;20391;-64
2021/10/15 04:51:40;;;;;;;10.32;5.93;;;;;;;7.56;67.92;100039.84;10390458;28;20053;-63
2021/10/15 04:56:42;;;;;;;12.38;6.18;;;;;;;7.51;68.02;100041.78;10390806;28;20415;-64
2021/10/15 05:01:43;;;;;;;12.05;6.70;;;;;;;7.54;67.97;100039.06;10389554;28;20285;-64
2021/10/15 05:06:46;;;;;;;13.77;8.18;;;;;;;7.56;67.92;100039.00;10390304;28;20136;-63
2021/10/15 05:11:47;;;;;;;9.80;6.38;;;;;;;7.58;67.92;100030.22;10388744;28;20053;-64
2021/10/15 05:16:52;;;;;;;11.18;6.03;;;;;;;7.54;67.86;100020.00;10389980;28;20041;-63
2021/10/15 05:21:54;;;;;;;10.35;5.63;;;;;;;7.56;67.99;100010.38;10389033;28;20140;-64
2021/10/15 05:26:56;;;;;;;12.63;8.00;;;;;;;7.58;67.62;100009.38;10389458;28;20048;-64
2021/10/15 05:31:58;;;;;;;11.13;6.00;;;;;;;7.58;67.67;99996.38;10388992;28;20063;-64
2021/10/15 05:37:00;;;;;;;11.07;5.53;;;;;;;7.62;67.44;99991.84;10388907;28;20049;-64
2021/10/15 05:42:02;;;;;;;9.95;5.80;;;;;;;7.62;67.43;99976.25;10387974;28;20053;-65
2021/10/15 05:47:04;;;;;;;9.80;5.75;;;;;;;7.61;67.43;99970.19;10389302;28;20344;-64
2021/10/15 05:52:10;;;;;;;12.10;6.10;;;;;;;7.60;67.40;99971.13;10388596;28;20057;-64
2021/10/15 06:02:19;;;;;;;12.60;5.80;;;;;;;7.67;67.34;99977.69;10388564;28;20056;-64
2021/10/15 06:18:15;;;;;;;13.10;5.97;;;;;;;7.68;67.34;99963.78;10387142;28;20546;-64
2021/10/15 06:23:19;;;;;;;8.82;5.20;;;;;;;7.79;67.11;99965.88;10383847;28;20077;-64
2021/10/15 06:28:20;;;;;;;11.60;5.95;;;;;;;7.84;67.05;99982.97;10386364;28;20051;-64
2021/10/15 06:33:22;;;;;;;11.85;5.90;;;;;;;7.96;66.98;99971.13;10386313;28;20164;-64
2021/10/15 06:38:24;;;;;;;11.93;5.80;;;;;;;7.98;66.95;99966.66;10385079;28;20049;-64
2021/10/15 06:43:26;;;;;;;13.68;6.20;;;;;;;8.11;66.63;99977.38;10386272;28;20053;-64
2021/10/15 06:48:27;;;;;;;9.85;5.80;;;;;;;8.27;66.32;99973.09;10384135;28;20060;-64
2021/10/15 06:53:29;;;;;;;13.40;6.50;;;;;;;8.36;66.13;99968.28;10384933;28;20049;-64
2021/10/15 06:58:34;;;;;;;13.32;6.20;;;;;;;8.59;65.74;99965.34;10384631;28;20163;-64
2021/10/15 07:03:35;;;;;;;11.63;5.68;;;;;;;8.87;65.20;99977.81;10380627;28;20046;-64
2021/10/15 07:08:37;;;;;;;14.48;6.25;;;;;;;9.04;64.79;99977.75;10382378;28;20558;-64
2021/10/15 07:13:40;;;;;;;11.60;5.32;;;;;;;9.21;64.53;99976.88;10383659;28;20379;-64
2021/10/15 07:18:44;;;;;;;10.45;6.38;;;;;;;9.34;64.12;99980.53;10383007;28;20049;-64
2021/10/15 07:23:46;;;;;;;13.43;5.60;;;;;;;9.53;63.92;99965.53;10380464;28;20100;-64
2021/10/15 07:28:48;;;;;;;10.57;5.88;;;;;;;9.75;63.22;99973.88;10382001;28;20709;-64
2021/10/15 07:33:50;;;;;;;12.00;5.68;;;;;;;9.81;62.92;99965.72;10382835;28;20464;-64
2021/10/15 07:38:52;;;;;;;13.52;6.50;;;;;;;10.00;62.79;99970.75;10384328;28;20549;-64
2021/10/15 07:43:55;;;;;;;11.88;6.13;;;;;;;10.11;62.52;99969.22;10381160;28;20140;-64
2021/10/15 07:48:56;;;;;;;12.48;6.53;;;;;;;10.33;62.31;99974.06;10374687;28;20403;-64
2021/10/15 07:53:58;;;;;;;9.93;6.10;;;;;;;10.37;61.66;99981.63;10381891;28;20085;-75
2021/10/15 07:59:00;;;;;;;12.98;6.63;;;;;;;10.50;61.42;99976.53;10380998;28;20056;-74
2021/10/15 08:04:04;;;;;;;12.68;5.60;;;;;;;10.60;61.30;99980.28;10383514;28;20060;-75
2021/10/15 08:09:21;;;;;;;13.60;6.13;;;;;;;10.42;61.29;99989.19;10382001;28;20092;-73
2021/10/15 08:14:23;;;;;;;13.75;6.10;;;;;;;10.60;60.91;99977.69;10383349;28;20295;-74
2021/10/15 08:19:25;;;;;;;10.40;6.18;;;;;;;10.59;60.78;99981.22;10384003;28;20140;-74
2021/10/15 08:24:26;;;;;;;12.10;6.32;;;;;;;10.64;60.58;99999.25;10391259;28;20055;-74
2021/10/15 08:29:30;;;;;;;12.00;5.80;;;;;;;10.63;60.55;99993.19;10391476;28;20056;-74
2021/10/15 08:34:33;;;;;;;11.82;6.20;;;;;;;10.55;60.30;99997.16;10390973;28;20053;-73
2021/10/15 08:39:36;;;;;;;11.40;5.90;;;;;;;10.60;60.48;99997.75;10391492;28;20492;-73
2021/10/15 08:44:41;;;;;;;9.52;5.70;;;;;;;10.78;60.23;99994.03;10390673;28;20057;-74
2021/10/15 08:49:45;;;;;;;9.95;5.80;;;;;;;11.03;59.42;99984.63;10387626;28;20328;-74
2021/10/15 08:54:47;;;;;;;10.75;5.57;;;;;;;11.23;58.96;99976.41;10375100;28;20068;-75
2021/10/15 08:59:52;;;;;;;8.50;5.28;;;;;;;11.75;58.12;99973.16;10386549;28;20047;-74
2021/10/15 09:04:57;;;;;;;15.55;5.30;;;;;;;12.15;57.03;99975.72;10387803;28;20366;-74
2021/10/15 09:10:19;;;;;;;14.60;5.53;;;;;;;12.50;55.38;99980.44;10381709;28;20045;-74
2021/10/15 09:15:21;;;;;;;9.13;4.72;;;;;;;12.69;55.70;99984.38;10388435;28;20050;-73
2021/10/15 09:20:31;;;;;;;10.38;5.15;;;;;;;12.87;54.33;99987.53;10387459;28;20053;-74
2021/10/15 09:25:48;;;;;;;10.93;5.10;;;;;;;13.47;54.37;99971.97;10394608;28;20041;-74
2021/10/15 09:30:51;;;;;;;10.10;4.93;;;;;;;13.56;53.42;99968.66;10382098;28;20057;-73
2021/10/15 09:36:04;;;;;;;8.45;4.63;;;;;;;13.56;52.59;99966.88;10379888;28;20870;-74
2021/10/15 09:41:06;;;;;;;9.13;4.72;;;;;;;13.62;53.21;99971.69;10380757;28;20045;-72
2021/10/15 09:46:21;;;;;;;10.48;4.68;;;;;;;13.84;52.17;99973.63;10384250;28;20502;-73
2021/10/15 09:51:24;;;;;;;8.77;4.32;;;;;;;13.63;53.07;99975.19;10384459;28;20568;-73
2021/10/15 09:56:42;;;;;;;9.35;4.30;;;;;;;13.62;52.99;99984.84;10385603;28;20421;-73
2021/10/15 10:01:44;;;;;;;7.95;4.15;;;;;;;13.70;53.01;99979.88;10387056;28;20080;-73
2021/10/15 10:06:48;;;;;;;7.80;3.90;;;;;;;13.66;52.94;99972.31;10385675;28;20045;-73
2021/10/15 10:11:52;;;;;;;7.22;4.07;;;;;;;13.50;52.50;99967.31;10369576;28;20053;-73
2021/10/15 10:16:56;;;;;;;8.68;3.80;;;;;;;13.66;52.88;99956.53;10386993;28;20771;-73
2021/10/15 10:21:58;;;;;;;6.65;3.85;;;;;;;14.05;52.38;99948.41;10386382;28;20050;-73
2021/10/15 10:27:00;;;;;;;6.55;3.50;;;;;;;14.17;52.04;99959.78;10386636;28;20697;-73
2021/10/15 10:32:16;;;;;;;8.80;4.13;;;;;;;14.20;51.42;99976.22;10386606;28;20068;-74
2021/10/15 10:37:19;;;;;;;7.13;3.55;;;;;;;13.91;52.54;99974.00;10377781;28;20148;-72
2021/10/15 10:42:28;;;;;;;6.97;3.58;;;;;;;13.83;52.46;99979.00;10385296;28;20136;-71
2021/10/15 10:47:31;;;;;;;5.97;3.25;;;;;;;13.96;52.49;99967.50;10385324;28;20231;-72
2021/10/15 10:52:59;;;;;;;7.78;3.50;;;;;;;13.97;52.76;99963.06;10381376;28;20053;-72
2021/10/15 10:58:01;;;;;;;5.82;3.15;;;;;;;13.97;52.93;99966.53;10380721;28;20140;-72
2021/10/15 11:03:03;;;;;;;6.15;3.10;;;;;;;13.93;53.12;99962.44;10383581;28;20053;-71
2021/10/15 11:08:23;;;;;;;8.10;3.50;;;;;;;14.04;52.70;99956.41;10380941;28;20053;-71
2021/10/15 11:13:33;;;;;;;7.75;3.10;;;;;;;14.02;52.69;99961.78;10383216;28;20064;-71
2021/10/15 11:18:37;;;;;;;8.27;3.30;;;;;;;14.13;52.88;99953.94;10380113;28;20428;-71
2021/10/15 11:23:40;;;;;;;7.40;3.30;;;;;;;14.09;53.02;99956.88;10383660;28;20128;-70
2021/10/15 11:28:42;;;;;;;7.60;2.75;;;;;;;14.08;53.04;99955.22;10383056;28;20624;-70
2021/10/15 11:33:45;;;;;;;5.88;2.88;;;;;;;14.03;53.29;99966.06;10380423;28;20140;-71
2021/10/15 11:38:46;;;;;;;7.88;2.90;;;;;;;14.15;52.88;99959.91;10379064;28;20045;-70
2021/10/15 11:43:52;;;;;;;5.97;3.00;;;;;;;14.43;52.72;99956.91;10383126;28;20049;-71
2021/10/15 11:48:54;;;;;;;8.27;3.03;;;;;;;14.50;52.64;99957.31;10381512;28;20142;-70
2021/10/15 11:53:59;;;;;;;6.15;2.90;;;;;;;14.51;52.33;99959.81;10382291;28;20183;-71
2021/10/15 11:59:08;;;;;;;7.00;2.80;;;;;;;14.63;52.48;99963.34;10385919;28;20052;-71
2021/10/15 12:04:13;;;;;;;5.22;2.85;;;;;;;14.72;52.04;99967.88;10389842;28;20049;-71
2021/10/15 12:09:18;;;;;;;6.88;3.17;;;;;;;14.80;51.99;99975.22;10379025;28;20055;-71
2021/10/15 12:14:29;;;;;;;6.57;3.00;;;;;;;15.02;51.95;99981.34;10389986;28;20075;-71
2021/10/15 12:19:39;;;;;;;6.00;2.88;;;;;;;15.16;51.25;99985.56;10387337;28;20339;-71
2021/10/15 12:24:50;;;;;;;5.93;3.50;;;;;;;15.10;52.99;100004.47;10388229;28;20049;-71
2021/10/15 12:29:59;;;;;;;7.95;3.30;;;;;;;15.16;53.82;99998.72;10390740;28;20053;-71
2021/10/15 12:35:13;;;;;;;8.13;3.27;;;;;;;15.25;53.03;100005.91;10391077;28;20053;-71
2021/10/15 12:40:33;;;;;;;6.47;3.03;;;;;;;15.29;52.66;100008.19;10390707;28;20046;-72
2021/10/15 12:45:49;;;;;;;7.70;3.30;;;;;;;15.04;53.21;100016.28;10390574;28;20581;-70
2021/10/15 12:51:11;;;;;;;7.65;3.72;;;;;;;14.85;53.91;100016.03;10389695;28;20502;-71
2021/10/15 12:56:14;;;;;;;6.10;3.35;;;;;;;14.95;53.92;100013.53;10389231;28;20180;-71
2021/10/15 13:01:34;;;;;;;6.18;3.50;;;;;;;15.01;53.87;100010.44;10385602;28;20174;-72
2021/10/15 13:06:36;;;;;;;8.32;3.30;;;;;;;14.80;54.25;100020.78;10385127;28;20061;-71
2021/10/15 13:11:38;;;;;;;9.57;3.40;;;;;;;14.53;54.73;100034.22;10385423;28;20049;-71
2021/10/15 13:16:40;;;;;;;7.88;3.42;;;;;;;14.24;55.43;100051.31;10384879;28;20060;-71
2021/10/15 13:21:41;;;;;;;5.43;3.17;;;;;;;14.18;55.76;100050.91;10386977;28;20425;-71
2021/10/15 13:26:43;;;;;;;5.15;2.90;;;;;;;14.16;56.21;100052.81;10387544;28;20060;-71
2021/10/15 13:31:45;;;;;;;5.07;2.80;;;;;;;14.07;56.58;100045.56;10383969;28;20084;-71
2021/10/15 13:36:49;;;;;;;4.78;3.00;;;;;;;14.11;56.62;100049.66;10386952;28;20072;-70
2021/10/15 13:47:13;;;;;;;4.82;2.65;;;;;;;13.83;57.02;100055.22;10387367;28;20148;-70
2021/10/15 13:52:17;;;;;;;4.15;2.60;;;;;;;13.86;56.70;100055.84;10387407;28;20454;-71
2021/10/15 13:57:21;;;;;;;4.03;2.20;;;;;;;13.73;57.02;100042.75;10384267;28;20136;-70
2021/10/15 14:02:30;;;;;;;4.95;2.13;;;;;;;13.63;57.08;100049.59;10383602;28;20084;-71
2021/10/15 14:07:31;;;;;;;3.63;1.95;;;;;;;13.64;57.04;100058.31;10385999;28;20493;-72
2021/10/15 14:12:33;;;;;;;3.97;2.00;;;;;;;13.55;57.22;100062.44;10374560;28;20064;-71
2021/10/15 14:17:35;;;;;;;4.85;1.90;;;;;;;13.66;57.28;100066.94;10383632;28;20079;-72
2021/10/15 14:22:37;;;;;;;2.85;1.63;;;;;;;13.74;56.98;100060.19;10383812;28;20387;-71
2021/10/15 14:27:38;;;;;;;4.43;2.00;;;;;;;13.76;57.22;100060.91;10387225;28;20317;-72
2021/10/15 14:32:43;;;;;;;4.93;2.38;;;;;;;13.74;58.01;100056.72;10385239;28;20045;-72
2021/10/15 14:37:50;;;;;;;6.18;2.38;;;;;;;13.77;58.16;100059.13;10384269;28;20061;-71
2021/10/15 14:42:52;;;;;;;3.85;2.22;;;;;;;13.79;58.24;100062.50;10385651;28;20049;-71
2021/10/15 14:47:53;;;;;;;3.70;2.05;;;;;;;13.90;57.95;100067.84;10383007;28;20448;-72
2021/10/15 14:52:56;;;;;;;5.85;2.20;;;;;;;13.97;57.97;100068.22;10384987;28;20057;-71
2021/10/15 14:57:58;;;;;;;4.72;2.33;;;;;;;13.98;57.94;100065.50;10383834;28;20053;-71
2021/10/15 15:02:59;;;;;;;4.05;2.35;;;;;;;13.94;58.04;100068.47;10381419;28;20046;-73
2021/10/15 15:08:02;;;;;;;4.05;2.30;;;;;;;13.88;58.20;100067.09;10381188;28;20056;-72
2021/10/15 15:13:04;;;;;;;5.60;2.28;;;;;;;13.81;58.45;100079.00;10384066;28;20437;-72
2021/10/15 15:18:06;;;;;;;4.75;2.20;;;;;;;13.86;58.47;100082.13;10382767;28;20585;-72
2021/10/15 15:23:08;;;;;;;4.35;2.17;;;;;;;13.87;58.27;100083.81;10375892;28;20054;-72
2021/10/15 15:28:10;;;;;;;4.32;2.25;;;;;;;13.80;58.48;100090.44;10376044;28;20289;-71
2021/10/15 15:33:15;;;;;;;5.53;2.20;;;;;;;13.62;58.99;100089.13;10383890;28;20581;-72
2021/10/15 15:38:17;;;;;;;5.68;2.25;;;;;;;13.60;58.85;100091.00;10383406;28;20324;-71
2021/10/15 15:43:19;;;;;;;5.70;3.10;;;;;;;13.56;59.14;100097.41;10382595;28;20047;-72
2021/10/15 15:48:23;;;;;;;4.38;2.40;;;;;;;13.51;59.31;100107.44;10384330;28;20512;-72
2021/10/15 15:53:24;;;;;;;4.13;2.83;;;;;;;13.37;59.57;100104.88;10383026;28;20399;-72
2021/10/15 15:58:26;;;;;;;5.38;2.78;;;;;;;13.09;60.43;100105.88;10380264;28;20049;-71
2021/10/15 16:03:28;;;;;;;8.23;3.15;;;;;;;12.80;61.23;100113.06;10381659;28;20494;-71
2021/10/15 16:08:30;;;;;;;6.88;2.90;;;;;;;12.59;61.63;100111.88;10379092;28;20528;-72
2021/10/15 16:13:32;;;;;;;5.05;2.75;;;;;;;12.60;61.67;100117.97;10382933;28;20053;-73
2021/10/15 16:18:33;;;;;;;6.47;2.95;;;;;;;12.49;62.08;100118.66;10382836;28;20122;-72
2021/10/15 16:23:35;;;;;;;7.13;3.10;;;;;;;12.37;62.36;100127.31;10380824;28;20375;-73
2021/10/15 16:28:37;;;;;;;5.15;2.72;;;;;;;12.24;62.99;100128.16;10383750;28;20054;-73
2021/10/15 16:33:41;;;;;;;4.47;3.10;;;;;;;12.21;62.96;100137.06;10382829;28;20539;-73
2021/10/15 16:38:43;;;;;;;4.65;3.08;;;;;;;12.08;63.51;100144.00;10382797;28;20504;-73
2021/10/15 16:43:44;;;;;;;6.13;3.60;;;;;;;11.98;63.51;100148.16;10387310;28;20477;-72
2021/10/15 16:48:46;;;;;;;4.78;3.45;;;;;;;11.83;63.64;100159.56;10389081;28;20494;-72
2021/10/15 16:53:48;;;;;;;7.53;4.00;;;;;;;11.70;63.58;100166.50;10388820;28;20410;-72
2021/10/15 16:58:50;;;;;;;7.78;3.30;;;;;;;11.49;63.72;100167.78;10390343;28;20051;-73
2021/10/15 17:03:52;;;;;;;8.15;3.95;;;;;;;11.32;64.21;100188.91;10387160;28;20498;-74
2021/10/15 17:08:54;;;;;;;5.60;3.83;;;;;;;11.22;64.41;100197.28;10386556;28;20374;-73
2021/10/15 17:13:56;;;;;;;10.65;3.83;;;;;;;11.04;64.65;100198.34;10386564;28;20057;-74
2021/10/15 17:18:57;;;;;;;6.38;4.55;;;;;;;10.88;64.93;100209.72;10383244;28;20059;-75
2021/10/15 17:23:59;;;;;;;9.07;5.10;;;;;;;10.78;65.09;100221.66;10378015;28;20045;-75
2021/10/15 17:29:02;;;;;;;8.30;5.55;;;;;;;10.67;65.20;100230.09;10387146;28;20084;-74
2021/10/15 17:34:04;;;;;;;8.98;5.85;;;;;;;10.53;65.62;100222.16;10375059;28;20041;-77
2021/10/15 17:39:06;;;;;;;9.23;5.70;;;;;;;10.45;66.02;100224.34;10384439;28;20284;-75
2021/10/15 17:44:07;;;;;;;8.00;6.03;;;;;;;10.34;66.24;100244.97;10386735;28;20053;-75
2021/10/15 17:49:31;;;;;;;7.45;5.63;;;;;;;10.20;66.31;100242.25;10386500;28;20112;-75
2021/10/15 17:54:33;;;;;;;6.80;5.82;;;;;;;10.14;66.30;100245.22;10383479;28;20410;-75
2021/10/15 17:59:35;;;;;;;7.72;5.70;;;;;;;10.06;66.52;100243.00;10386418;28;20063;-76
2021/10/15 18:04:36;;;;;;;9.68;6.60;;;;;;;9.99;66.93;100248.66;10385178;28;20421;-77
2021/10/15 18:09:38;;;;;;;7.75;6.25;;;;;;;9.92;67.01;100247.25;10383590;28;20037;-76
2021/10/15 18:14:40;;;;;;;8.48;6.75;;;;;;;9.85;67.02;100244.13;10381777;28;20065;-75
2021/10/15 18:19:42;;;;;;;8.23;6.60;;;;;;;9.75;67.29;100255.16;10385896;28;20687;-74
2021/10/15 18:24:44;;;;;;;9.35;7.35;;;;;;;9.67;67.37;100260.72;10381899;28;20651;-76
2021/10/15 18:29:46;;;;;;;12.75;7.13;;;;;;;9.56;67.46;100257.81;10385441;28;20642;-75
2021/10/15 18:34:47;;;;;;;8.57;6.88;;;;;;;9.42;67.81;100262.88;10384432;28;20080;-74
2021/10/15 18:39:49;;;;;;;10.35;8.70;;;;;;;9.37;67.84;100263.09;10383808;28;20139;-74
2021/10/15 18:44:53;;;;;;;10.63;7.55;;;;;;;9.29;67.71;100270.47;10375766;28;20049;-75
2021/10/15 18:49:55;;;;;;;9.90;8.05;;;;;;;9.20;67.33;100286.56;10384689;28;20659;-75
2021/10/15 18:54:57;;;;;;;10.43;8.00;;;;;;;9.15;67.71;100293.78;10379844;28;20737;-75
2021/10/15 18:59:59;;;;;;;13.80;7.63;;;;;;;9.12;67.89;100306.94;10383837;28;20092;-75
2021/10/15 19:05:01;;;;;;;10.07;7.78;;;;;;;9.10;67.84;100306.19;10381852;28;20041;-75
2021/10/15 19:10:03;;;;;;;14.35;7.53;;;;;;;8.99;67.71;100303.25;10384092;28;20049;-74
2021/10/15 19:15:05;;;;;;;14.75;11.02;;;;;;;8.84;67.78;100310.03;10384115;28;20064;-75
2021/10/15 19:20:07;;;;;;;11.32;8.68;;;;;;;8.81;68.17;100317.16;10385103;28;20907;-62
2021/10/15 19:25:09;;;;;;;15.45;8.65;;;;;;;8.79;68.22;100321.59;10384294;28;20041;-63
2021/10/15 19:30:18;;;;;;;17.75;11.63;;;;;;;8.74;68.46;100318.34;10384488;28;20041;-63
2021/10/15 19:35:20;;;;;;;15.27;9.68;;;;;;;8.72;68.29;100315.81;10382256;28;20060;-63
2021/10/15 19:40:22;;;;;;;25.52;15.18;;;;;;;8.58;68.29;100320.81;10383760;28;20045;-63
2021/10/15 19:45:24;;;;;;;22.77;11.45;;;;;;;8.52;68.28;100318.50;10382840;28;20041;-63
2021/10/15 19:50:26;;;;;;;15.05;9.82;;;;;;;8.44;68.29;100317.13;10383945;28;20063;-63
2021/10/15 19:55:27;;;;;;;11.90;9.32;;;;;;;8.40;68.16;100318.19;10381793;28;20063;-63
2021/10/15 20:00:29;;;;;;;16.63;11.68;;;;;;;8.37;68.08;100323.53;10382916;28;20511;-63
2021/10/15 20:05:31;;;;;;;19.05;10.55;;;;;;;8.28;68.13;100326.56;10383499;28;20049;-63
2021/10/15 20:10:33;;;;;;;16.13;10.80;;;;;;;8.21;68.20;100338.13;10383912;28;20132;-63
2021/10/15 20:15:35;;;;;;;17.10;11.43;;;;;;;8.08;68.01;100336.97;10384658;28;20520;-63
2021/10/15 20:20:36;;;;;;;17.55;12.27;;;;;;;8.02;68.23;100341.50;10391102;28;20655;-63
2021/10/15 20:25:38;;;;;;;20.85;12.88;;;;;;;8.01;68.16;100344.19;10390634;28;20050;-63
2021/10/15 20:30:40;;;;;;;17.40;10.30;;;;;;;7.94;68.20;100343.59;10390722;28;20144;-63
2021/10/15 20:35:41;;;;;;;228.23;17.75;;;;;;;7.87;67.89;100355.19;10388974;28;20153;-63
2021/10/15 20:40:43;;;;;;;28.40;10.88;;;;;;;7.79;67.97;100352.03;10390774;28;20060;-63
2021/10/15 20:45:45;;;;;;;11.60;9.27;;;;;;;7.73;67.97;100360.09;10389345;28;20569;-63
2021/10/15 20:50:47;;;;;;;339.08;17.98;;;;;;;7.65;67.89;100359.56;10390027;28;20049;-63
2021/10/15 20:55:48;;;;;;;314.27;19.27;;;;;;;7.55;68.15;100373.88;10389661;28;20053;-63
2021/10/15 21:00:50;;;;;;;294.55;21.83;;;;;;;7.49;68.03;100384.53;10389843;28;20078;-62
2021/10/15 21:05:56;;;;;;;175.70;18.30;;;;;;;7.45;68.00;100382.13;10389144;28;20045;-63
2021/10/15 21:10:57;;;;;;;33.45;12.73;;;;;;;7.38;68.05;100391.94;10388987;28;20395;-63
2021/10/15 21:15:59;;;;;;;15.32;12.10;;;;;;;7.36;68.12;100385.94;10388250;28;20063;-62
2021/10/15 21:21:01;;;;;;;12.73;9.68;;;;;;;7.33;68.19;100386.03;10386164;28;20049;-63
2021/10/15 21:26:03;;;;;;;24.98;11.88;;;;;;;7.29;68.44;100387.06;10382390;28;20049;-63
2021/10/15 21:31:05;;;;;;;40.40;11.98;;;;;;;7.34;68.63;100390.38;10386513;28;20049;-62
2021/10/15 21:36:07;;;;;;;40.58;11.20;;;;;;;7.44;68.74;100402.09;10386799;28;20057;-63
2021/10/15 21:41:10;;;;;;;94.43;12.65;;;;;;;7.54;68.46;100411.25;10386550;28;20054;-63
2021/10/15 21:46:11;;;;;;;98.10;12.23;;;;;;;7.63;68.47;100412.63;10384512;28;20509;-62
2021/10/15 21:51:14;;;;;;;133.93;13.00;;;;;;;7.68;68.60;100414.13;10385299;28;20041;-62
2021/10/15 21:56:16;;;;;;;99.20;12.25;;;;;;;7.77;68.62;100412.91;10386868;28;20046;-63
2021/10/15 22:01:18;;;;;;;199.40;15.20;;;;;;;7.80;68.55;100412.78;10385715;28;20048;-62
2021/10/15 22:06:20;;;;;;;257.58;15.80;;;;;;;7.74;68.45;100426.91;10386267;28;20250;-62
2021/10/15 22:11:22;;;;;;;79.57;9.30;;;;;;;7.64;68.67;100420.38;10384929;28;20053;-62
2021/10/15 22:16:25;;;;;;;141.35;14.13;;;;;;;7.76;68.72;100413.81;10385435;28;20059;-62
2021/10/15 22:21:26;;;;;;;169.05;13.65;;;;;;;7.98;68.62;100415.47;10385894;28;20621;-62
2021/10/15 22:26:28;;;;;;;119.45;13.60;;;;;;;8.06;68.72;100417.75;10384941;28;20057;-62
2021/10/15 22:31:30;;;;;;;157.82;14.95;;;;;;;8.14;68.51;100422.69;10385824;28;20056;-62
2021/10/15 22:36:31;;;;;;;184.15;15.10;;;;;;;8.23;68.50;100430.97;10383807;28;21035;-62
2021/10/15 22:41:33;;;;;;;213.90;15.25;;;;;;;8.22;68.36;100421.44;10384436;28;20055;-63
2021/10/15 22:46:35;;;;;;;260.50;16.25;;;;;;;8.20;68.56;100425.88;10384414;28;20049;-63
2021/10/15 22:51:36;;;;;;;224.10;17.45;;;;;;;8.26;68.51;100419.56;10382392;28;20041;-62
2021/10/15 22:56:38;;;;;;;259.75;17.55;;;;;;;8.25;68.79;100418.72;10384025;28;20523;-62
2021/10/15 23:01:42;;;;;;;321.85;18.58;;;;;;;8.22;68.81;100423.22;10383664;28;20060;-62
2021/10/15 23:06:45;;;;;;;369.70;18.55;;;;;;;8.30;68.60;100416.78;10384035;28;20061;-62
2021/10/15 23:11:47;;;;;;;508.05;25.10;;;;;;;8.27;68.68;100426.47;10383407;28;20128;-63
2021/10/15 23:16:51;;;;;;;424.27;21.25;;;;;;;8.31;68.49;100428.88;10383526;28;20065;-62
2021/10/15 23:21:53;;;;;;;323.98;18.23;;;;;;;8.34;68.43;100435.72;10383028;28;20046;-62
2021/10/15 23:26:55;;;;;;;264.73;17.45;;;;;;;8.44;68.60;100437.88;10381874;28;20556;-62
2021/10/15 23:31:57;;;;;;;475.30;21.58;;;;;;;8.55;67.89;100432.19;10379891;28;20050;-62
2021/10/15 23:36:58;;;;;;;279.05;19.63;;;;;;;8.44;68.05;100430.06;10379839;28;20413;-63